Latest Weather Observations for Daly Waters

IDD60801

Issued at 1:31 pm CST Wednesday 23 August 2017 (issued every 30 minutes, with the page automatically refreshed every 10 minutes)

About weather observations | Map of weather stations | Latest weather observations for NT | Other Formats
Station Details ID: 014626 Name: DALY WATERS AIRSTRIP Lat: -16.26 Lon: 133.38 Height: 209.84 m
Data from the previous 72 hours. | See also: Recent months at Daly Waters
Date/Time
CST
Temp
°C
App
Temp
°C
Dew
Point
°C
Rel
Hum
%
Delta-T
°C
Wind Press
QNH
hPa
Press
MSL
hPa
Rain since
9am
mm
Dir  Spd
km/h
Gust
km/h
Spd
kts
Gust
kts
23/01:30pm 35.3 31.9 5.7 16 16.2 ENE 13 28 7 15 1014.9 1014.1 0.0
23/01:00pm 34.9 31.9 6.2 17 15.8 NE 11 20 6 11 1015.5 1014.7 0.0
23/12:30pm 35.5 33.4 9.8 21 15.0 ENE 11 24 6 13 1016.1 1015.3 0.0
23/12:00pm 34.7 32.6 11.2 24 13.9 ENE 13 24 7 13 1016.7 1015.9 0.0
23/11:30am 32.8 30.7 11.3 27 12.7 E 13 22 7 12 1017.3 1016.5 0.0
23/11:00am 31.6 30.2 13.4 33 11.0 NE 13 20 7 11 1017.7 1016.9 0.0
23/10:30am 29.9 28.6 13.6 36 9.8 ENE 13 19 7 10 1018.0 1017.2 0.0
23/10:00am 27.9 28.2 14.9 45 7.9 ENE 7 15 4 8 1018.2 1017.4 0.0
23/09:30am 25.7 26.0 15.1 52 6.4 NE 7 11 4 6 1018.1 1017.3 0.0
23/09:00am 24.2 24.8 15.9 59 5.1 NE 7 11 4 6 1018.1 1017.3 0.0
23/08:30am 21.4 22.8 15.3 68 3.6 ENE 2 6 1 3 1017.9 1017.1 0.0
23/08:00am 18.2 19.0 13.7 75 2.6 ESE 2 4 1 2 1017.7 1016.9 0.0
23/07:30am 13.2 13.3 10.2 82 1.6 CALM 0 0 0 0 1017.4 1016.6 0.0
23/07:00am 11.7 11.4 8.6 81 1.6 CALM 0 0 0 0 1017.2 1016.4 0.0
23/06:30am 11.6 11.2 8.3 80 1.6 CALM 0 0 0 0 1017.1 1016.3 0.0
23/06:00am 11.7 11.3 8.4 80 1.6 CALM 0 0 0 0 1017.0 1016.2 0.0
23/05:30am 11.9 11.5 8.2 78 1.8 CALM 0 0 0 0 1016.9 1016.1 0.0
23/05:00am 12.2 11.8 8.1 76 2.0 CALM 0 0 0 0 1016.7 1015.9 0.0
23/04:30am 12.5 12.1 8.2 75 2.1 CALM 0 0 0 0 1016.7 1015.9 0.0
23/04:00am 12.8 12.4 8.1 73 2.3 CALM 0 0 0 0 1016.6 1015.8 0.0
23/03:30am 13.3 12.9 8.2 71 2.6 CALM 0 0 0 0 1016.5 1015.7 0.0
23/03:00am 14.3 14.1 8.9 70 2.8 CALM 0 0 0 0 1016.7 1015.9 0.0
23/02:30am 14.4 13.0 8.8 69 2.9 SSE 6 7 3 4 1016.8 1016.0 0.0
23/02:00am 13.4 11.7 7.4 67 3.0 S 6 6 3 3 1016.6 1015.8 0.0
23/01:30am 14.1 13.5 7.6 65 3.2 CALM 0 0 0 0 1016.5 1015.7 0.0
23/01:00am 14.3 13.7 7.4 63 3.4 CALM 0 0 0 0 1016.5 1015.7 0.0
23/12:30am 15.0 14.4 7.5 61 3.7 CALM 0 0 0 0 1016.7 1015.9 0.0
23/12:00am 15.0 14.3 7.1 59 3.9 CALM 0 0 0 0 1016.7 1015.9 0.0
 
Date/Time
CST
Temp
°C
App
Temp
°C
Dew
Point
°C
Rel
Hum
%
Delta-T
°C
Wind Press
QNH
hPa
Press
MSL
hPa
Rain since
9am
mm
Dir  Spd
km/h
Gust
km/h
Spd
kts
Gust
kts
22/11:30pm 15.7 15.0 7.0 56 4.3 CALM 0 0 0 0 1016.8 1016.0 0.0
22/11:00pm 16.2 15.1 6.9 54 4.6 ENE 2 2 1 1 1016.7 1015.9 0.0
22/10:30pm 15.9 14.5 7.1 56 4.4 E 4 6 2 3 1016.7 1015.9 0.0
22/10:00pm 15.7 14.9 6.7 55 4.5 CALM 0 0 0 0 1016.1 1015.3 0.0
22/09:30pm 16.4 15.7 6.8 53 4.8 CALM 0 0 0 0 1015.9 1015.1 0.0
22/09:00pm 17.2 16.4 6.4 49 5.4 CALM 0 0 0 0 1015.6 1014.8 0.0
22/08:30pm 17.9 17.0 6.1 46 5.9 CALM 0 0 0 0 1015.3 1014.5 0.0
22/08:00pm 19.1 18.1 5.6 41 6.7 CALM 0 0 0 0 1015.1 1014.3 0.0
22/07:30pm 21.2 20.0 4.7 34 8.1 CALM 0 0 0 0 1014.8 1014.0 0.0
22/07:00pm 23.6 22.3 4.0 28 9.7 CALM 0 0 0 0 1014.5 1013.7 0.0
22/06:30pm 28.1 26.0 3.7 21 12.4 E 4 6 2 3 1014.2 1013.3 0.0
22/06:00pm 32.5 30.0 3.5 16 15.1 E 6 9 3 5 1013.8 1012.9 0.0
22/05:30pm 33.6 30.5 3.4 15 15.8 ESE 9 15 5 8 1013.7 1012.8 0.0
22/05:00pm 34.5 31.1 4.1 15 16.1 E 11 22 6 12 1013.7 1012.8 0.0
22/04:30pm 35.3 31.7 2.7 13 17.0 ENE 11 20 6 11 1013.7 1012.8 0.0
22/04:00pm 35.7 31.9 4.1 14 16.9 E 13 24 7 13 1013.7 1012.8 0.0
22/03:30pm 36.0 31.5 4.3 14 17.0 ENE 17 28 9 15 1013.8 1012.9 0.0
22/03:00pm 34.5 30.7 4.1 15 16.1 E 13 26 7 14 1013.9 1013.0 0.0
22/02:30pm 35.7 31.6 6.0 16 16.3 ENE 17 37 9 20 1014.1 1013.2 0.0
22/02:00pm 34.9 31.6 6.2 17 15.8 E 13 24 7 13 1014.5 1013.7 0.0
22/01:30pm 35.1 32.2 8.0 19 15.3 ENE 13 24 7 13 1014.8 1014.0 0.0
22/01:00pm 33.7 30.5 8.3 21 14.3 E 15 24 8 13 1015.2 1014.4 0.0
22/12:30pm 34.4 31.3 8.9 21 14.6 NE 15 24 8 13 1015.7 1014.9 0.0
22/12:00pm 32.6 29.8 10.0 25 13.0 NE 15 28 8 15 1016.0 1015.2 0.0
22/11:30am 30.7 29.3 12.1 32 11.0 NE 11 24 6 13 1016.4 1015.6 0.0
22/11:00am 30.8 29.7 13.1 34 10.6 NE 11 19 6 10 1016.7 1015.9 0.0
22/10:30am 29.1 29.2 15.6 44 8.4 NE 9 13 5 7 1016.9 1016.1 0.0
22/10:00am 26.9 26.9 16.2 52 6.6 NNE 11 15 6 8 1017.2 1016.4 0.0
22/09:30am 25.4 25.4 16.3 57 5.6 NE 11 15 6 8 1016.9 1016.1 0.0
22/09:00am 23.0 23.0 16.3 66 4.1 NNE 11 19 6 10 1017.0 1016.2 0.0
22/08:30am 20.9 20.3 13.4 62 4.3 NE 9 13 5 7 1016.8 1016.0 0.0
22/08:00am 16.8 16.3 9.2 61 4.0 NE 2 4 1 2 1016.6 1015.8 0.0
22/07:56am 16.0 15.7 8.5 61 3.9 CALM 0 2 0 1 1016.6 1015.8 0.0
22/07:30am 10.9 10.2 7.0 77 1.9 CALM 0 0 0 0 1016.2 1015.4 0.0
22/07:00am 9.6 8.8 6.3 80 1.5 CALM 0 0 0 0 1015.8 1015.0 0.0
22/06:30am 9.5 8.6 6.0 79 1.6 CALM 0 0 0 0 1015.5 1014.7 0.0
22/06:00am 9.7 8.8 6.2 79 1.6 CALM 0 0 0 0 1015.1 1014.3 0.0
22/05:30am 9.8 8.5 6.2 78 1.7 SW 2 4 1 2 1014.8 1014.0 0.0
22/05:00am 9.9 9.0 6.1 77 1.8 CALM 0 0 0 0 1014.6 1013.8 0.0
22/04:30am 10.4 9.6 6.4 76 1.9 CALM 0 0 0 0 1014.5 1013.7 0.0
22/04:00am 10.5 9.6 6.1 74 2.1 CALM 0 0 0 0 1014.4 1013.6 0.0
22/03:30am 10.5 9.5 5.7 72 2.2 CALM 0 0 0 0 1014.5 1013.7 0.0
22/03:00am 11.1 10.1 5.8 70 2.5 CALM 0 0 0 0 1014.4 1013.6 0.0
22/02:30am 11.8 11.0 6.3 69 2.6 CALM 0 0 0 0 1014.4 1013.6 0.0
22/02:00am 12.3 11.4 6.1 66 3.0 CALM 0 0 0 0 1014.7 1013.9 0.0
22/01:30am 12.7 11.7 5.8 63 3.3 CALM 0 0 0 0 1014.9 1014.1 0.0
22/01:00am 12.8 11.7 5.2 60 3.6 CALM 0 0 0 0 1015.0 1014.2 0.0
22/12:30am 13.6 12.6 5.5 58 3.8 CALM 0 0 0 0 1015.1 1014.3 0.0
22/12:00am 13.3 11.8 5.0 57 3.9 E 2 2 1 1 1015.0 1014.2 0.0
 
Date/Time
CST
Temp
°C
App
Temp
°C
Dew
Point
°C
Rel
Hum
%
Delta-T
°C
Wind Press
QNH
hPa
Press
MSL
hPa
Rain since
9am
mm
Dir  Spd
km/h
Gust
km/h
Spd
kts
Gust
kts
21/11:30pm 13.8 11.9 4.9 55 4.2 E 4 6 2 3 1015.0 1014.2 0.0
21/11:00pm 14.4 12.8 4.7 52 4.6 ENE 2 4 1 2 1015.0 1014.2 0.0
21/10:30pm 14.6 13.0 4.6 51 4.7 E 2 4 1 2 1015.0 1014.2 0.0
21/10:00pm 15.0 13.8 4.4 49 5.0 CALM 0 0 0 0 1014.8 1014.0 0.0
21/09:30pm 15.4 14.1 4.2 47 5.2 CALM 0 0 0 0 1014.8 1014.0 0.0
21/09:00pm 16.1 14.7 3.5 43 5.9 CALM 0 0 0 0 1014.6 1013.8 0.0
21/08:30pm 16.8 15.4 3.5 41 6.2 CALM 0 0 0 0 1014.3 1013.5 0.0
21/08:00pm 17.7 16.1 2.5 36 7.0 CALM 0 0 0 0 1013.8 1012.9 0.0
21/07:30pm 19.0 17.3 2.0 32 7.8 CALM 0 0 0 0 1013.3 1012.5 0.0
21/07:00pm 21.8 20.0 0.9 25 9.6 CALM 0 0 0 0 1013.0 1012.2 0.0
21/06:30pm 26.7 23.8 -1.2 16 12.9 ENE 4 4 2 2 1012.7 1011.9 0.0
21/06:27pm 27.2 24.3 -0.8 16 13.0 ENE 4 4 2 2 1012.7 1011.9 0.0
21/06:00pm 32.3 29.0 0.4 13 15.7 ENE 7 11 4 6 1012.5 1011.7 0.0
21/05:30pm 33.8 30.6 -0.7 11 16.9 ENE 6 9 3 5 1012.1 1011.3 0.0
21/05:00pm 34.3 30.5 -0.4 11 17.1 ENE 9 20 5 11 1011.9 1011.1 0.0
21/04:30pm 34.8 31.5 0.0 11 17.3 ENE 7 13 4 7 1011.8 1011.0 0.0
21/04:00pm 35.3 32.0 0.4 11 17.5 E 7 17 4 9 1011.8 1011.0 0.0
21/03:30pm 35.0 31.7 0.2 11 17.4 NE 7 17 4 9 1011.9 1011.1 0.0
21/03:00pm 34.9 31.4 1.3 12 17.1 NE 9 22 5 12 1012.1 1011.3 0.0
21/02:30pm 34.3 31.5 2.0 13 16.6 ESE 6 11 3 6 1012.4 1011.6 0.0
21/02:00pm 34.7 31.7 2.3 13 16.7 ESE 7 19 4 10 1012.8 1012.0 0.0
21/01:30pm 34.0 30.6 1.7 13 16.4 NE 9 20 5 11 1013.4 1012.6 0.0
21/01:00pm 33.1 29.6 1.0 13 16.1 ESE 9 17 5 9 1014.0 1013.1 0.0
21/12:30pm 33.2 29.8 2.1 14 15.9 ENE 9 17 5 9 1014.6 1013.8 0.0
21/12:00pm 31.2 27.7 3.3 17 14.3 NE 11 22 6 12 1015.1 1014.3 0.0
21/11:30am 30.1 27.3 3.2 18 13.7 NE 7 15 4 8 1015.7 1014.9 0.0
21/11:00am 29.7 27.4 5.7 22 12.7 NNE 7 13 4 7 1016.3 1015.5 0.0
21/10:30am 29.2 26.7 6.6 24 12.1 NE 9 19 5 10 1016.5 1015.7 0.0
21/10:00am 27.3 26.2 10.1 34 9.7 NE 6 11 3 6 1016.7 1015.9 0.0
21/09:30am 24.8 24.4 13.0 47 6.9 NE 7 13 4 7 1016.4 1015.6 0.0
21/09:00am 21.5 21.9 15.3 68 3.7 NNE 7 11 4 6 1016.2 1015.4 0.0
21/08:30am 19.5 19.1 14.1 71 3.1 NE 9 17 5 9 1015.9 1015.1 0.0
21/08:00am 15.5 15.4 9.6 68 3.1 CALM 0 2 0 1 1015.8 1015.0 0.0
21/07:30am 10.3 9.5 6.3 76 1.9 CALM 0 0 0 0 1015.4 1014.6 0.0
21/07:00am 8.7 7.6 4.9 77 1.7 CALM 0 0 0 0 1015.1 1014.3 0.0
21/06:30am 8.8 7.6 4.8 76 1.8 CALM 0 0 0 0 1014.8 1014.0 0.0
21/06:00am 9.0 7.8 4.8 75 1.9 CALM 0 0 0 0 1014.5 1013.7 0.0
21/05:30am 9.7 8.6 5.1 73 2.1 CALM 0 0 0 0 1014.2 1013.3 0.0
21/05:00am 9.8 8.6 4.8 71 2.3 CALM 0 0 0 0 1014.3 1013.5 0.0
21/04:30am 10.3 9.2 4.9 69 2.5 CALM 0 0 0 0 1014.3 1013.5 0.0
21/04:00am 10.6 9.5 4.9 68 2.6 CALM 0 0 0 0 1014.0 1013.1 0.0
21/03:30am 11.2 10.0 4.7 64 3.0 CALM 0 0 0 0 1014.0 1013.1 0.0
21/03:00am 11.7 10.5 4.4 61 3.3 CALM 0 0 0 0 1014.0 1013.1 0.0
21/02:30am 12.3 11.0 4.3 58 3.7 CALM 0 0 0 0 1014.2 1013.3 0.0
21/02:00am 12.9 11.5 3.8 54 4.1 CALM 0 0 0 0 1014.4 1013.6 0.0
21/01:30am 14.7 13.3 3.8 48 5.0 CALM 0 4 0 2 1014.4 1013.6 0.0
21/01:00am 16.3 13.6 2.7 40 6.2 ENE 6 6 3 3 1014.5 1013.7 0.0
21/12:30am 18.0 15.0 2.3 35 7.2 ENE 7 7 4 4 1014.6 1013.8 0.0
21/12:00am 15.8 13.7 3.9 45 5.6 SSE 4 7 2 4 1014.3 1013.5 0.0
 
Date/Time
CST
Temp
°C
App
Temp
°C
Dew
Point
°C
Rel
Hum
%
Delta-T
°C
Wind Press
QNH
hPa
Press
MSL
hPa
Rain since
9am
mm
Dir  Spd
km/h
Gust
km/h
Spd
kts
Gust
kts
20/11:30pm 14.3 13.1 4.6 52 4.5 CALM 0 0 0 0 1014.1 1013.2 0.0
20/11:00pm 14.9 13.4 4.9 51 4.7 SSE 2 2 1 1 1014.3 1013.5 0.0
20/10:30pm 16.9 14.5 4.3 43 6.0 SE 6 6 3 3 1014.3 1013.5 0.0
20/10:00pm 15.7 13.4 4.7 48 5.2 SSE 6 7 3 4 1014.3 1013.5 0.0
20/09:30pm 16.2 14.3 4.9 47 5.4 SSE 4 7 2 4 1014.4 1013.6 0.0
20/09:00pm 17.0 15.1 4.7 44 5.9 ESE 4 6 2 3 1014.3 1013.5 0.0
20/08:30pm 18.1 16.8 3.9 39 6.8 CALM 0 0 0 0 1014.1 1013.2 0.0
20/08:00pm 20.1 17.9 3.3 33 8.0 ESE 4 6 2 3 1013.8 1012.9 0.0
20/07:30pm 20.6 18.2 4.2 34 8.0 SSE 6 7 3 4 1013.3 1012.5 0.0
20/07:00pm 22.1 20.0 3.7 30 9.0 SSE 4 4 2 2 1013.0 1012.2 0.0
20/06:30pm 26.3 24.4 2.9 22 11.6 SE 2 6 1 3 1012.9 1012.1 0.0
20/06:28pm 26.9 25.1 3.4 22 11.8 SE 2 4 1 2 1012.9 1012.1 0.0
20/06:00pm 31.9 29.1 2.1 15 15.1 E 6 9 3 5 1012.9 1012.1 0.0
20/05:30pm 33.3 30.3 2.2 14 15.9 E 7 11 4 6 1012.8 1012.0 0.0
20/05:00pm 34.3 31.5 2.0 13 16.6 ENE 6 11 3 6 1012.7 1011.9 0.0
20/04:30pm 34.4 31.6 2.0 13 16.6 ESE 6 13 3 7 1012.7 1011.9 0.0
20/04:00pm 35.0 32.1 2.5 13 16.9 ENE 7 15 4 8 1012.6 1011.8 0.0
20/03:30pm 34.4 31.6 2.0 13 16.6 NE 6 15 3 8 1012.7 1011.9 0.0
20/03:00pm 34.5 31.1 2.1 13 16.7 ESE 9 17 5 9 1013.1 1012.3 0.0
20/02:30pm 35.1 31.4 2.6 13 16.9 E 11 19 6 10 1013.6 1012.7 0.0
20/02:00pm 34.2 30.4 1.9 13 16.5 ENE 11 22 6 12 1014.0 1013.1 0.0

Other Formats:

Comma delimited format used in spreadsheet applications
http://www.bom.gov.au/fwo/IDD60801/IDD60801.94234.axf

JavaScript Object Notation format (JSON) in row-major order
http://www.bom.gov.au/fwo/IDD60801/IDD60801.94234.json